createdAt,value
2023-02-19T00:01:56.467Z,100461.28
2023-02-19T00:04:25.040Z,100460.53
2023-02-19T00:06:52.961Z,100459.06
2023-02-19T00:09:21.653Z,100450.06
2023-02-19T00:11:50.446Z,100455.38
2023-02-19T00:14:20.713Z,100454.69
2023-02-19T00:16:49.641Z,100453.09
2023-02-19T00:19:21.096Z,100457.13
2023-02-19T00:21:51.499Z,100455.38
2023-02-19T00:24:22.848Z,100442.72
2023-02-19T00:26:51.185Z,100454.34
2023-02-19T00:29:21.984Z,100451.09
2023-02-19T00:31:50.760Z,100432.28
2023-02-19T00:34:20.204Z,100428.94
2023-02-19T00:36:48.596Z,100428.09
2023-02-19T00:39:18.612Z,100419.69
2023-02-19T00:41:47.008Z,100409.59
2023-02-19T00:44:15.886Z,100415.34
2023-02-19T00:46:46.115Z,100414.81
2023-02-19T00:49:18.539Z,100408.28
2023-02-19T00:51:48.523Z,100408.75
2023-02-19T00:54:17.383Z,100405.88
2023-02-19T00:56:45.582Z,100415.50
2023-02-19T00:59:14.101Z,100418.75
2023-02-19T01:01:42.687Z,100413.44
2023-02-19T01:04:12.798Z,100414.75
2023-02-19T01:06:42.065Z,100415.38
2023-02-19T01:09:11.492Z,100418.28
2023-02-19T01:11:40.176Z,100399.37
2023-02-19T01:14:08.463Z,100399.31
2023-02-19T01:16:36.503Z,100391.31
2023-02-19T01:19:04.729Z,100376.41
2023-02-19T01:21:33.024Z,100371.94
2023-02-19T01:24:01.049Z,100368.31
2023-02-19T01:26:32.317Z,100368.38
2023-02-19T01:29:00.761Z,100358.94
2023-02-19T01:31:30.025Z,100352.87
2023-02-19T01:34:00.121Z,100351.75
2023-02-19T01:36:29.332Z,100342.28
2023-02-19T01:38:57.512Z,100351.97
2023-02-19T01:41:26.640Z,100332.94
2023-02-19T01:44:00.728Z,100329.44
2023-02-19T01:46:30.194Z,100330.94
2023-02-19T01:49:01.870Z,100319.06
2023-02-19T01:51:32.065Z,100322.25
2023-02-19T01:54:03.579Z,100320.06
2023-02-19T01:56:34.197Z,100303.84
2023-02-19T01:59:04.002Z,100294.03
2023-02-19T02:01:32.715Z,100307.25
2023-02-19T02:04:01.778Z,100296.56
2023-02-19T02:06:34.175Z,100306.41
2023-02-19T02:09:20.672Z,100281.75
2023-02-19T02:11:51.312Z,100283.59
2023-02-19T02:14:25.990Z,100286.38
2023-02-19T02:16:59.454Z,100281.63
2023-02-19T02:19:57.806Z,100273.63
2023-02-19T02:22:30.397Z,100259.84
2023-02-19T02:25:44.817Z,100250.41
2023-02-19T02:28:27.150Z,100242.53
2023-02-19T02:30:59.408Z,100238.13
2023-02-19T02:33:34.142Z,100235.47
2023-02-19T02:36:08.761Z,100232.78
2023-02-19T02:38:41.157Z,100237.28
2023-02-19T02:41:10.392Z,100229.28
2023-02-19T02:43:39.017Z,100231.09
2023-02-19T02:46:12.243Z,100229.66
2023-02-19T02:48:44.810Z,100224.06
2023-02-19T02:51:21.180Z,100231.22
2023-02-19T02:54:14.245Z,100237.06
2023-02-19T02:56:43.955Z,100224.66
2023-02-19T02:59:14.685Z,100216.53
2023-02-19T03:02:04.158Z,100210.97
2023-02-19T03:04:58.109Z,100208.19
2023-02-19T03:07:29.845Z,100195.72
2023-02-19T03:10:01.107Z,100195.59
2023-02-19T03:12:49.838Z,100191.94
2023-02-19T03:15:38.185Z,100204.19
2023-02-19T03:18:28.063Z,100198.12
2023-02-19T03:20:59.016Z,100201.41
2023-02-19T03:23:45.202Z,100209.75
2023-02-19T03:26:15.750Z,100204.81
2023-02-19T03:29:04.282Z,100198.38
2023-02-19T03:31:34.353Z,100202.13
2023-02-19T03:34:06.382Z,100205.66
2023-02-19T03:36:39.069Z,100193.16
2023-02-19T03:39:09.664Z,100185.41
2023-02-19T03:41:50.257Z,100189.16
2023-02-19T03:44:26.392Z,100188.81
2023-02-19T03:47:03.435Z,100186.03
2023-02-19T03:49:40.962Z,100176.44
2023-02-19T03:52:17.548Z,100178.63
2023-02-19T03:54:52.080Z,100183.81
2023-02-19T03:57:24.446Z,100197.41
2023-02-19T04:00:00.312Z,100198.75
2023-02-19T04:02:34.562Z,100210.34
2023-02-19T04:05:12.586Z,100200.53
2023-02-19T04:07:46.259Z,100209.87
2023-02-19T04:10:16.186Z,100202.44
2023-02-19T04:12:49.766Z,100209.72
2023-02-19T04:15:22.526Z,100213.81
2023-02-19T04:17:56.024Z,100204.84
2023-02-19T04:20:30.763Z,100201.69
2023-02-19T04:22:59.251Z,100205.84
2023-02-19T04:25:29.898Z,100204.00
2023-02-19T04:27:59.014Z,100206.53
2023-02-19T04:30:27.611Z,100209.06
2023-02-19T04:32:55.667Z,100206.47
2023-02-19T04:35:23.770Z,100202.44
2023-02-19T04:37:53.646Z,100199.19
2023-02-19T04:40:21.676Z,100200.75
2023-02-19T04:42:49.607Z,100195.69
2023-02-19T04:45:18.216Z,100197.50
2023-02-19T04:47:46.146Z,100201.97
2023-02-19T04:50:14.431Z,100208.03
2023-02-19T04:52:42.738Z,100205.72
2023-02-19T04:55:12.080Z,100209.47
2023-02-19T04:57:40.165Z,100206.91
2023-02-19T05:00:10.218Z,100210.44
2023-02-19T05:02:38.286Z,100211.78
2023-02-19T05:05:06.824Z,100210.19
2023-02-19T05:07:35.214Z,100219.19
2023-02-19T05:10:03.369Z,100209.00
2023-02-19T05:12:32.976Z,100212.16
2023-02-19T05:15:01.292Z,100214.59
2023-02-19T05:17:29.350Z,100214.34
2023-02-19T05:19:57.386Z,100204.53
2023-02-19T05:22:25.733Z,100211.44
2023-02-19T05:24:53.742Z,100210.25
2023-02-19T05:27:21.761Z,100213.00
2023-02-19T05:29:51.426Z,100210.13
2023-02-19T05:32:19.420Z,100206.75
2023-02-19T05:34:47.402Z,100211.94
2023-02-19T05:37:16.404Z,100207.22
2023-02-19T05:39:44.587Z,100202.13
2023-02-19T05:42:14.736Z,100213.13
2023-02-19T05:44:43.511Z,100211.69
2023-02-19T05:47:13.240Z,100207.34
2023-02-19T05:49:41.190Z,100221.13
2023-02-19T05:52:09.541Z,100215.19
2023-02-19T05:54:37.526Z,100232.94
2023-02-19T05:57:05.599Z,100255.66
2023-02-19T05:59:34.005Z,100278.41
2023-02-19T06:02:02.070Z,100294.69
2023-02-19T06:04:31.988Z,100309.56
2023-02-19T06:07:00.118Z,100315.28
2023-02-19T06:09:28.294Z,100321.03
2023-02-19T06:11:57.135Z,100332.97
2023-02-19T06:14:25.323Z,100331.34
2023-02-19T06:16:53.304Z,100331.44
2023-02-19T06:19:21.702Z,100343.03
2023-02-19T06:21:52.240Z,100350.03
2023-02-19T06:24:20.275Z,100359.00
2023-02-19T06:26:48.514Z,100360.38
2023-02-19T06:29:17.620Z,100386.09
2023-02-19T06:31:46.386Z,100375.53
2023-02-19T06:34:14.715Z,100380.66
2023-02-19T06:36:42.727Z,100393.44
2023-02-19T06:39:12.032Z,100392.78
2023-02-19T06:41:40.304Z,100392.69
2023-02-19T06:44:08.413Z,100404.28
2023-02-19T06:46:36.664Z,100404.50
2023-02-19T06:49:06.085Z,100426.28
2023-02-19T06:51:34.907Z,100424.88
2023-02-19T06:54:03.279Z,100430.50
2023-02-19T06:56:34.320Z,100433.69
2023-02-19T06:59:04.733Z,100456.78
2023-02-19T07:01:35.080Z,100464.19
2023-02-19T07:04:03.904Z,100481.78
2023-02-19T07:06:32.941Z,100488.75
2023-02-19T07:09:01.298Z,100477.00
2023-02-19T07:11:31.664Z,100480.56
2023-02-19T07:14:03.414Z,100483.19
2023-02-19T07:16:31.992Z,100491.75
2023-02-19T07:19:01.426Z,100494.44
2023-02-19T07:21:30.307Z,100508.19
2023-02-19T07:23:58.999Z,100521.44
2023-02-19T07:26:27.394Z,100536.91
2023-02-19T07:28:55.665Z,100542.06
2023-02-19T07:31:25.482Z,100563.84
2023-02-19T07:33:53.881Z,100577.09
2023-02-19T07:36:23.388Z,100579.84
2023-02-19T07:38:55.896Z,100579.66
2023-02-19T07:41:25.150Z,100589.47
2023-02-19T07:43:54.470Z,100591.28
2023-02-19T07:46:23.176Z,100602.16
2023-02-19T07:48:52.781Z,100599.31
2023-02-19T07:51:21.529Z,100600.28
2023-02-19T07:53:51.238Z,100624.63
2023-02-19T07:56:20.604Z,100634.00
2023-02-19T07:58:48.582Z,100627.97
2023-02-19T08:01:18.720Z,100630.81
2023-02-19T08:03:46.772Z,100631.53
2023-02-19T08:06:17.662Z,100638.84
2023-02-19T08:08:45.787Z,100656.94
2023-02-19T08:11:31.513Z,100686.59
2023-02-19T08:13:59.449Z,100691.63
2023-02-19T08:16:41.979Z,100698.88
2023-02-19T08:19:11.252Z,100707.47
2023-02-19T08:21:41.018Z,100718.44
2023-02-19T08:24:09.241Z,100724.56
2023-02-19T08:26:37.982Z,100727.38
2023-02-19T08:29:07.227Z,100732.66
2023-02-19T08:31:36.581Z,100721.31
2023-02-19T08:34:08.561Z,100734.06
2023-02-19T08:36:42.674Z,100740.78
2023-02-19T08:39:10.704Z,100743.28
2023-02-19T08:41:38.833Z,100746.38
2023-02-19T08:44:07.390Z,100750.91
2023-02-19T08:46:36.002Z,100760.50
2023-02-19T08:49:04.221Z,100759.13
2023-02-19T08:51:32.618Z,100758.47
2023-02-19T08:54:03.531Z,100775.16
2023-02-19T08:56:32.302Z,100779.78
2023-02-19T08:59:00.567Z,100771.44
2023-02-19T09:01:28.771Z,100780.56
2023-02-19T09:03:57.192Z,100779.59
2023-02-19T09:06:25.171Z,100789.97
2023-02-19T09:08:53.803Z,100805.88
2023-02-19T09:11:23.721Z,100797.06
2023-02-19T09:13:51.848Z,100810.72
2023-02-19T09:16:19.832Z,100812.19
2023-02-19T09:18:48.220Z,100812.28
2023-02-19T09:21:16.212Z,100811.75
2023-02-19T09:23:44.179Z,100809.84
2023-02-19T09:26:14.137Z,100807.88
2023-02-19T09:28:43.537Z,100818.34
2023-02-19T09:31:14.005Z,100813.56
2023-02-19T09:33:47.258Z,100827.50
2023-02-19T09:36:16.301Z,100830.50
2023-02-19T09:38:44.572Z,100839.66
2023-02-19T09:41:17.893Z,100847.47
2023-02-19T09:43:47.617Z,100844.03
2023-02-19T09:46:25.006Z,100856.44
2023-02-19T09:48:56.354Z,100860.06
2023-02-19T09:51:28.955Z,100867.72
2023-02-19T09:53:58.989Z,100874.19
2023-02-19T09:56:28.630Z,100884.13
2023-02-19T09:59:00.534Z,100889.81
2023-02-19T10:01:33.773Z,100893.69
2023-02-19T10:04:02.075Z,100901.31
2023-02-19T10:06:30.493Z,100905.63
2023-02-19T10:09:14.736Z,100906.19
2023-02-19T10:11:43.148Z,100909.28
2023-02-19T10:14:18.497Z,100909.59
2023-02-19T10:16:49.217Z,100916.50
2023-02-19T10:19:18.032Z,100916.13
2023-02-19T10:21:47.317Z,100915.44
2023-02-19T10:24:21.434Z,100925.59
2023-02-19T10:26:51.351Z,100927.44
2023-02-19T10:29:21.946Z,100938.22
2023-02-19T10:31:52.147Z,100942.06
2023-02-19T10:34:22.333Z,100940.81
2023-02-19T10:36:53.525Z,100937.31
2023-02-19T10:39:39.745Z,100931.06
2023-02-19T10:42:19.194Z,100929.13
2023-02-19T10:44:52.555Z,100947.16
2023-02-19T10:47:24.905Z,100945.13
2023-02-19T10:49:54.277Z,100952.22
2023-02-19T10:52:26.635Z,100954.44
2023-02-19T10:54:58.915Z,100964.62
2023-02-19T10:57:35.189Z,100979.28
2023-02-19T11:00:22.754Z,100979.03
2023-02-19T11:02:51.788Z,100981.50
2023-02-19T11:05:21.141Z,100968.19
2023-02-19T11:07:51.671Z,100975.72
2023-02-19T11:10:28.791Z,100978.47
2023-02-19T11:12:59.838Z,100988.75
2023-02-19T11:15:31.968Z,100997.22
2023-02-19T11:18:03.345Z,100997.88
2023-02-19T11:20:31.985Z,101013.34
2023-02-19T11:23:15.313Z,101007.31
2023-02-19T11:25:47.772Z,101015.47
2023-02-19T11:28:33.047Z,101029.87
2023-02-19T11:31:22.960Z,101013.94
2023-02-19T11:33:56.137Z,101035.56
2023-02-19T11:36:33.414Z,101034.94
2023-02-19T11:39:21.478Z,101038.81
2023-02-19T11:42:11.913Z,101039.66
2023-02-19T11:44:52.381Z,101042.03
2023-02-19T11:47:51.135Z,101044.47
2023-02-19T11:50:26.081Z,101038.81
2023-02-19T11:53:11.562Z,101032.56
2023-02-19T11:55:52.370Z,101027.56
2023-02-19T11:58:51.416Z,101027.84
2023-02-19T12:01:26.137Z,101019.44
2023-02-19T12:04:40.067Z,101025.62
2023-02-19T12:07:21.216Z,101029.84
2023-02-19T12:10:03.773Z,101036.41
2023-02-19T12:12:42.787Z,101044.75
2023-02-19T12:15:32.530Z,101048.38
2023-02-19T12:18:26.439Z,101039.63
2023-02-19T12:21:11.082Z,101049.00
2023-02-19T12:24:01.676Z,101041.47
2023-02-19T12:26:33.487Z,101038.97
2023-02-19T12:29:36.096Z,101036.41
2023-02-19T12:32:26.361Z,101039.88
2023-02-19T12:35:21.041Z,101046.59
2023-02-19T12:38:00.511Z,101061.06
2023-02-19T12:40:39.829Z,101049.91
2023-02-19T12:43:15.297Z,101054.75
2023-02-19T12:45:48.138Z,101059.94
2023-02-19T12:48:30.818Z,101059.94
2023-02-19T12:51:05.413Z,101060.53
2023-02-19T12:53:43.088Z,101082.28
2023-02-19T12:56:18.079Z,101074.47
2023-02-19T12:58:49.820Z,101072.25
2023-02-19T13:01:24.141Z,101071.72
2023-02-19T13:04:13.959Z,101060.09
2023-02-19T13:06:46.165Z,101063.38
2023-02-19T13:09:22.091Z,101062.53
2023-02-19T13:11:54.380Z,101064.41
2023-02-19T13:14:29.199Z,101069.81
2023-02-19T13:17:02.355Z,101068.50
2023-02-19T13:19:32.146Z,101075.44
2023-02-19T13:22:27.830Z,101079.34
2023-02-19T13:24:58.368Z,101068.66
2023-02-19T13:30:34.633Z,101079.66
2023-02-19T13:33:19.231Z,101094.34
2023-02-19T13:36:08.165Z,101080.03
2023-02-19T13:38:40.504Z,101086.41
2023-02-19T13:41:19.848Z,101094.66
2023-02-19T13:43:56.502Z,101095.38
2023-02-19T13:46:26.303Z,101100.28
2023-02-19T13:49:25.624Z,101092.38
2023-02-19T13:51:55.877Z,101098.69
2023-02-19T13:54:29.392Z,101103.50
2023-02-19T13:57:26.214Z,101110.72
2023-02-19T13:59:55.393Z,101119.72
2023-02-19T14:02:31.306Z,101117.84
2023-02-19T14:05:02.616Z,101125.41
2023-02-19T14:07:51.481Z,101135.19
2023-02-19T14:10:58.051Z,101135.72
2023-02-19T14:14:06.635Z,101121.22
2023-02-19T14:16:55.780Z,101123.62
2023-02-19T14:19:47.155Z,101123.62
2023-02-19T14:23:04.774Z,101123.06
2023-02-19T14:25:46.476Z,101115.37
2023-02-19T14:28:20.081Z,101122.31
2023-02-19T14:30:52.055Z,101127.63
2023-02-19T14:33:24.450Z,101134.09
2023-02-19T14:35:57.666Z,101126.03
2023-02-19T14:38:29.576Z,101128.03
2023-02-19T14:40:58.577Z,101129.56
2023-02-19T14:43:28.656Z,101134.84
2023-02-19T14:46:01.834Z,101125.56
2023-02-19T14:48:34.224Z,101115.28
2023-02-19T14:51:06.002Z,101116.03
2023-02-19T14:53:39.915Z,101109.41
2023-02-19T14:56:17.416Z,101122.00
2023-02-19T14:58:46.092Z,101117.91
2023-02-19T15:01:28.515Z,101126.13
2023-02-19T15:03:57.286Z,101128.56
2023-02-19T15:06:27.380Z,101132.16
2023-02-19T15:09:00.637Z,101131.44
2023-02-19T15:11:31.977Z,101126.00
2023-02-19T15:14:03.006Z,101131.06
2023-02-19T15:16:36.239Z,101139.00
2023-02-19T15:19:07.280Z,101145.37
2023-02-19T15:21:39.909Z,101155.06
2023-02-19T15:24:08.445Z,101154.66
2023-02-19T15:26:40.993Z,101158.44
2023-02-19T15:29:12.045Z,101140.09
2023-02-19T15:31:47.435Z,101149.47
2023-02-19T15:34:18.564Z,101146.16
2023-02-19T15:36:47.662Z,101152.00
2023-02-19T15:39:22.265Z,101157.28
2023-02-19T15:42:00.112Z,101153.84
2023-02-19T15:44:50.323Z,101151.38
2023-02-19T15:47:29.625Z,101150.72
2023-02-19T15:50:02.445Z,101147.22
2023-02-19T15:52:38.010Z,101148.63
2023-02-19T15:55:19.837Z,101149.31
2023-02-19T15:57:54.821Z,101148.84
2023-02-19T16:00:32.268Z,101143.72
2023-02-19T16:03:02.761Z,101148.72
2023-02-19T16:05:31.700Z,101155.41
2023-02-19T16:08:08.209Z,101167.22
2023-02-19T16:10:36.623Z,101174.94
2023-02-19T16:13:07.190Z,101176.41
2023-02-19T16:15:35.836Z,101176.84
2023-02-19T16:18:05.862Z,101175.47
2023-02-19T16:20:36.931Z,101185.13
2023-02-19T16:23:10.871Z,101183.59
2023-02-19T16:25:42.257Z,101187.13
2023-02-19T16:28:12.675Z,101187.19
2023-02-19T16:30:41.419Z,101195.28
2023-02-19T16:33:36.165Z,101189.66
2023-02-19T16:36:26.437Z,101196.78
2023-02-19T16:39:04.672Z,101207.69
2023-02-19T16:41:32.963Z,101203.72
2023-02-19T16:44:06.453Z,101209.16
2023-02-19T16:46:34.913Z,101213.91
2023-02-19T16:49:04.246Z,101217.00
2023-02-19T16:51:32.302Z,101219.91
2023-02-19T16:54:00.517Z,101228.84
2023-02-19T16:56:28.703Z,101229.84
2023-02-19T16:58:56.724Z,101224.47
2023-02-19T17:01:25.544Z,101220.22
2023-02-19T17:03:59.436Z,101224.88
2023-02-19T17:06:29.546Z,101233.16
2023-02-19T17:08:57.677Z,101241.72
2023-02-19T17:11:26.020Z,101251.91
2023-02-19T17:13:54.505Z,101247.00
2023-02-19T17:16:27.268Z,101255.34
2023-02-19T17:18:56.520Z,101262.00
2023-02-19T17:21:27.056Z,101262.41
2023-02-19T17:23:57.539Z,101265.50
2023-02-19T17:26:28.058Z,101267.63
2023-02-19T17:28:57.543Z,101270.53
2023-02-19T17:31:25.668Z,101259.94
2023-02-19T17:33:53.914Z,101264.53
2023-02-19T17:36:23.763Z,101264.69
2023-02-19T17:38:51.768Z,101265.72
2023-02-19T17:41:21.273Z,101268.38
2023-02-19T17:43:50.404Z,101267.69
2023-02-19T17:46:19.404Z,101280.22
2023-02-19T17:48:47.432Z,101277.69
2023-02-19T17:51:16.033Z,101267.22
2023-02-19T17:53:46.576Z,101272.72
2023-02-19T17:56:19.083Z,101291.50
2023-02-19T17:58:48.959Z,101290.13
2023-02-19T18:01:17.050Z,101286.81
2023-02-19T18:03:45.651Z,101289.53
2023-02-19T18:06:14.092Z,101295.88
2023-02-19T18:08:48.322Z,101305.78
2023-02-19T18:11:16.773Z,101297.00
2023-02-19T18:13:44.976Z,101288.28
2023-02-19T18:16:15.681Z,101276.88
2023-02-19T18:18:44.651Z,101280.56
2023-02-19T18:21:14.237Z,101301.56
2023-02-19T18:23:43.275Z,101297.84
2023-02-19T18:26:13.769Z,101303.81
2023-02-19T18:28:41.888Z,101295.75
2023-02-19T18:31:10.178Z,101306.31
2023-02-19T18:33:40.150Z,101309.88
2023-02-19T18:36:11.631Z,101313.53
2023-02-19T18:38:40.404Z,101316.34
2023-02-19T18:41:12.750Z,101319.19
2023-02-19T18:43:41.947Z,101306.03
2023-02-19T18:46:10.630Z,101314.09
2023-02-19T18:48:40.259Z,101316.72
2023-02-19T18:51:11.753Z,101310.66
2023-02-19T18:53:40.118Z,101308.03
2023-02-19T18:56:09.115Z,101314.28
2023-02-19T18:58:37.210Z,101329.47
2023-02-19T19:01:05.590Z,101324.19
2023-02-19T19:03:33.972Z,101317.97
2023-02-19T19:06:03.280Z,101325.09
2023-02-19T19:08:31.359Z,101320.81
2023-02-19T19:10:59.549Z,101307.72
2023-02-19T19:13:27.552Z,101310.56
2023-02-19T19:15:55.706Z,101320.44
2023-02-19T19:18:25.069Z,101325.06
2023-02-19T19:20:56.303Z,101325.25
2023-02-19T19:23:26.064Z,101324.50
2023-02-19T19:25:54.689Z,101322.09
2023-02-19T19:28:23.126Z,101325.72
2023-02-19T19:30:51.563Z,101332.97
2023-02-19T19:33:20.349Z,101323.38
2023-02-19T19:35:48.370Z,101317.25
2023-02-19T19:38:16.679Z,101315.53
2023-02-19T19:40:46.120Z,101316.56
2023-02-19T19:43:14.264Z,101310.59
2023-02-19T19:45:42.623Z,101315.75
2023-02-19T19:48:10.581Z,101310.41
2023-02-19T19:50:38.631Z,101312.03
2023-02-19T19:53:06.939Z,101308.47
2023-02-19T19:55:34.942Z,101317.19
2023-02-19T19:58:04.671Z,101313.69
2023-02-19T20:00:33.121Z,101307.66
2023-02-19T20:03:01.565Z,101307.78
2023-02-19T20:05:29.688Z,101313.06
2023-02-19T20:07:57.871Z,101307.81
2023-02-19T20:10:26.160Z,101314.00
2023-02-19T20:12:54.334Z,101314.03
2023-02-19T20:15:24.493Z,101309.78
2023-02-19T20:17:52.784Z,101309.94
2023-02-19T20:20:22.680Z,101314.44
2023-02-19T20:22:51.773Z,101314.56
2023-02-19T20:25:20.276Z,101317.25
2023-02-19T20:27:48.991Z,101324.31
2023-02-19T20:30:19.895Z,101317.31
2023-02-19T20:32:50.508Z,101313.81
2023-02-19T20:35:19.153Z,101322.72
2023-02-19T20:37:49.428Z,101319.28
2023-02-19T20:40:19.036Z,101311.37
2023-02-19T20:42:47.051Z,101313.16
2023-02-19T20:45:16.699Z,101325.63
2023-02-19T20:47:45.011Z,101324.84
2023-02-19T20:50:16.883Z,101324.03
2023-02-19T20:52:46.191Z,101335.56
2023-02-19T20:55:14.280Z,101330.44
2023-02-19T20:57:42.335Z,101333.34
2023-02-19T21:00:11.378Z,101327.44
2023-02-19T21:02:39.585Z,101340.81
2023-02-19T21:05:08.703Z,101336.62
2023-02-19T21:07:38.373Z,101338.34
2023-02-19T21:10:07.106Z,101333.94
2023-02-19T21:12:35.183Z,101339.91
2023-02-19T21:15:04.467Z,101338.09
2023-02-19T21:17:32.586Z,101336.91
2023-02-19T21:20:00.560Z,101344.47
2023-02-19T21:22:28.732Z,101344.31
2023-02-19T21:24:58.068Z,101344.97
2023-02-19T21:27:26.139Z,101346.44
2023-02-19T21:29:54.435Z,101341.84
2023-02-19T21:32:22.567Z,101333.59
2023-02-19T21:34:50.563Z,101341.34
2023-02-19T21:37:18.884Z,101330.59
2023-02-19T21:39:47.063Z,101317.12
2023-02-19T21:42:16.407Z,101322.13
2023-02-19T21:44:44.682Z,101325.41
2023-02-19T21:47:13.066Z,101335.94
2023-02-19T21:49:41.851Z,101338.81
2023-02-19T21:52:10.434Z,101322.59
2023-02-19T21:54:38.466Z,101314.56
2023-02-19T21:57:06.539Z,101311.72
2023-02-19T21:59:36.129Z,101315.91
2023-02-19T22:02:04.316Z,101329.84
2023-02-19T22:04:32.588Z,101320.00
2023-02-19T22:07:00.584Z,101324.25
2023-02-19T22:09:28.555Z,101322.44
2023-02-19T22:11:56.945Z,101313.62
2023-02-19T22:14:24.927Z,101309.13
2023-02-19T22:16:54.281Z,101307.28
2023-02-19T22:19:22.567Z,101303.72
2023-02-19T22:21:50.538Z,101298.34
2023-02-19T22:24:20.770Z,101292.97
2023-02-19T22:26:50.675Z,101294.56
2023-02-19T22:29:19.080Z,101294.44
2023-02-19T22:31:47.202Z,101289.94
2023-02-19T22:34:17.620Z,101295.94
2023-02-19T22:36:45.786Z,101300.16
2023-02-19T22:39:18.573Z,101300.84
2023-02-19T22:41:47.254Z,101303.22
2023-02-19T22:44:15.356Z,101301.22
2023-02-19T22:46:48.253Z,101292.22
2023-02-19T22:49:18.583Z,101295.59
2023-02-19T22:51:52.949Z,101293.66
2023-02-19T22:54:25.019Z,101288.31
2023-02-19T22:56:53.771Z,101289.12
2023-02-19T22:59:22.608Z,101290.09
2023-02-19T23:01:51.291Z,101292.69
2023-02-19T23:04:23.436Z,101290.81
2023-02-19T23:06:52.699Z,101287.34
2023-02-19T23:09:23.939Z,101293.44
2023-02-19T23:11:53.165Z,101300.31
2023-02-19T23:14:24.359Z,101291.53
2023-02-19T23:16:52.888Z,101296.69
2023-02-19T23:19:22.345Z,101299.41
2023-02-19T23:21:50.990Z,101298.47
2023-02-19T23:24:19.626Z,101304.56
2023-02-19T23:26:49.177Z,101298.41
2023-02-19T23:29:18.665Z,101298.19
2023-02-19T23:31:47.721Z,101290.06
2023-02-19T23:34:15.913Z,101285.69
2023-02-19T23:36:47.000Z,101268.88
2023-02-19T23:39:17.953Z,101265.97
2023-02-19T23:41:50.640Z,101261.47
2023-02-19T23:44:19.936Z,101256.03
2023-02-19T23:46:49.657Z,101248.03
2023-02-19T23:49:18.559Z,101246.94
2023-02-19T23:51:48.414Z,101248.66
2023-02-19T23:54:16.724Z,101245.03
2023-02-19T23:56:44.928Z,101243.91
2023-02-19T23:59:13.320Z,101242.19
